Locust Grove, Virginia
Current Conditions -  °F | °C
As of 2:35 PM on Tuesday 21 Oct 2014 (Local Time) from KCJR Reporting Station
Overcast Overcast  
Wind Chill: 70°   Ceiling: 6000
Heat Index: 70°   Visibility: 10mi
Dew Point: 45°   Wind: 0mph
Humidity: 40%   Direction: NA
Pressure: 29.82"   Gusts: NA
Location:  38.33°N, 77.77°W
Report Text: KCJR 211835Z AUTO 00000KT 10SM OVC060 21/07 A2982 RMK AO2
Loading
Personal Weather Stations






























Interactive Weather Map
Tropical Storm Tracking
New forecast layout! Learn more

10-Day Weather Forecast

Advertisements
Track Severe Weather on mobile